Latest Coastal Weather Observations for Lord Howe Island

IDN60701

Issued at 2:55 am EDT Saturday 1 November 2014 (issued every 10 minutes, with the page automatically refreshed every 10 minutes)

About coastal observations | Map of coastal stations | Coastal observations for NSW | Marine services | Other Formats
Station Details ID: 200839 Name: LORD HOWE ISLAND AERO Lat: -31.54 Lon: 159.08 Height: 5.0 m
Data from the previous 72 hours. | See also: Recent months at Lord Howe Island
Date/Time
EDT
Temp

°C
Wind Pressure Rain
since 9am
mm
Weather Cloud Vis
km
Sea
Height
m
Swell
Dir
 
Speed
knots
Gust
knots
hPa Trend Height
m
Period
s
Dir
01/02:40am 20.5 NNE 12 17 1017.3 - 0.0 - Partly cloudy 10 - - - -
01/02:37am 20.5 NNE 12 17 1017.3 - 0.0 - Partly cloudy 10 - - - -
01/02:30am 20.4 NE 12 16 1017.4 - 0.0 - Partly cloudy 10 - - - -
01/02:20am 20.5 NE 13 19 1017.5 - 0.0 - Partly cloudy 10 - - - -
01/02:00am 20.4 NNE 13 16 1017.5 - 0.0 - Partly cloudy 10 - - - -
01/01:30am 20.4 NE 12 16 1017.9 - 0.0 - Partly cloudy 10 - - - -
01/01:00am 20.4 NE 11 15 1018.4 - 0.0 - Partly cloudy 10 - - - -
01/12:30am 20.5 NE 7 18 1018.9 - 0.0 - Partly cloudy 10 - - - -
01/12:00am 20.7 NNE 7 15 1019.4 - 0.0 - Mostly clear 10 - - - -
 
Date/Time
EDT
Temp

°C
Wind Pressure Rain
since 9am
mm
Weather Cloud Vis
km
Sea
Height
m
Swell
Dir
 
Speed
knots
Gust
knots
hPa Trend Height
m
Period
s
Dir
31/11:30pm 20.6 NNE 7 18 1019.4 - 0.0 - Partly cloudy 10 - - - -
31/11:00pm 20.7 NNE 9 16 1019.2 - 0.0 - Partly cloudy 10 - - - -
31/10:30pm 20.5 NE 11 16 1019.0 - 0.0 - Partly cloudy 10 - - - -
31/10:00pm 20.5 NNE 11 15 1018.9 - 0.0 - Partly cloudy 10 - - - -
31/09:30pm 20.5 NNE 13 17 1018.9 - 0.0 - - 10 - - - -
31/09:00pm 20.5 NNE 12 16 1018.7 - 0.0 - Mostly clear 10 - - - -
31/08:30pm 20.6 NNE 14 17 1018.7 - 0.0 - Partly cloudy 10 - - - -
31/08:00pm 20.6 NNE 12 16 1018.3 - 0.0 - Partly cloudy 10 - - - -
31/07:52pm 20.5 NE 12 15 1018.2 - 0.0 - Partly cloudy 10 - - - -
31/07:30pm 20.6 NNE 13 17 1017.9 - 0.0 - Partly cloudy 10 - - - -
31/07:18pm 20.6 NE 13 16 1017.8 - 0.0 - Partly cloudy 10 - - - -
31/07:00pm 20.6 NE 13 16 1017.7 - 0.0 - Partly cloudy 10 - - - -
31/06:30pm 20.7 NE 13 17 1017.5 - 0.0 - Partly cloudy 10 - - - -
31/06:00pm 20.9 NNE 14 17 1017.4 - 0.0 - - 10 - - - -
31/05:30pm 21.3 NNE 13 16 1017.4 - 0.0 - - 10 - - - -
31/05:00pm 21.5 NNE 14 16 1017.4 - 0.0 - - 10 - - - -
31/04:30pm 21.9 NNE 13 15 1017.5 - 0.0 - - 10 - - - -
31/04:00pm 22.2 NNE 11 14 1017.5 - 0.0 - Partly cloudy 10 - - - -
31/03:30pm 22.6 NNE 11 13 1017.7 - 0.0 - - 10 - - - -
31/03:00pm 22.6 NNE 10 13 1017.8 F 0.0 Haze Mostly clear 20 - - - -
31/02:30pm 22.7 NNE 11 13 1018.1 - 0.0 - - 10 - - - -
31/02:00pm 22.6 NNE 10 12 1018.4 - 0.0 - - 10 - - - -
31/01:30pm 22.5 NNE 12 14 1018.7 - 0.0 - Partly cloudy 10 - - - -
31/01:00pm 22.5 NNE 10 12 1019.0 - 0.0 - - 10 - - - -
31/12:30pm 22.5 NNE 10 13 1019.2 - 0.0 - Partly cloudy 10 - - - -
31/12:00pm 22.8 NE 10 13 1019.4 - 0.0 - - 10 - - - -
31/11:30am 22.5 NE 10 15 1019.4 - 0.0 - Partly cloudy 10 - - - -
31/11:00am 22.5 NNE 10 12 1019.7 - 0.0 - Partly cloudy 10 - - - -
31/10:30am 22.6 NNE 10 12 1019.7 - 0.0 - Partly cloudy 10 - - - -
31/10:10am 22.4 NNE 9 12 1019.8 - 0.0 - Partly cloudy 10 - - - -
31/10:00am 22.5 NE 10 13 1019.8 - 0.0 - Partly cloudy 10 - - - -
31/09:57am 22.5 NE 9 11 1019.8 - 0.0 - Partly cloudy 10 - - - -
31/09:30am 22.2 NNE 10 13 1019.7 - 0.0 - Partly cloudy 10 - - - -
31/09:00am 22.0 NNE 9 12 1019.6 F 0.0 Haze Mostly clear 20 - - - -
31/08:30am 21.9 NE 9 12 1019.4 - 0.0 - - 10 - - - -
31/08:00am 21.6 NNW 5 8 1019.5 - 0.0 - - 10 - - - -
31/07:30am 21.0 NNW 6 9 1019.5 - 0.0 - - 10 - - - -
31/07:00am 20.7 NNW 3 6 1019.3 - 0.0 - Partly cloudy 10 - - - -
31/06:30am 20.0 NW 1 5 1019.0 - 0.0 - - 10 - - - -
31/06:00am 18.6 N 3 5 1018.8 R 0.0 Fine Partly cloudy 20 - - - -
31/05:30am 18.1 CALM 0 0 1018.5 - 0.0 - - 10 - - - -
31/05:00am 19.3 N 4 6 1018.2 - 0.0 - Partly cloudy 10 - - - -
31/04:30am 18.2 NE 3 5 1017.9 - 0.0 - Partly cloudy 10 - - - -
31/04:07am 19.5 NNE 5 6 1017.8 - 0.0 - Partly cloudy 10 - - - -
31/04:00am 19.6 NNE 5 7 1017.8 - 0.0 - Partly cloudy 10 - - - -
31/03:47am 19.5 NNE 6 8 1017.7 - 0.0 - Partly cloudy 10 - - - -
31/03:30am 19.2 NE 7 8 1017.7 - 0.0 - Partly cloudy 10 - - - -
31/03:00am 19.3 NE 8 10 1017.8 - 0.0 - Mostly clear 10 - - - -
31/02:38am 19.5 NE 8 10 1017.9 - 0.0 - Partly cloudy 10 - - - -
31/02:30am 19.5 NE 8 10 1018.0 - 0.0 - Partly cloudy 10 - - - -
31/02:28am 19.5 NE 8 10 1018.0 - 0.0 - Partly cloudy 10 - - - -
31/02:16am 19.4 NE 8 11 1017.9 - 0.0 - Partly cloudy 10 - - - -
31/02:00am 19.6 NNE 8 10 1018.0 - 0.0 - Partly cloudy 10 - - - -
31/01:50am 19.6 NE 9 11 1018.0 - 0.0 - Partly cloudy 10 - - - -
31/01:30am 19.3 NE 10 12 1018.0 - 0.0 - Partly cloudy 10 - - - -
31/01:00am 19.2 NE 9 11 1018.2 - 0.0 - Partly cloudy 10 - - - -
31/12:30am 19.2 NE 11 14 1018.2 - 0.0 - Partly cloudy 10 - - - -
31/12:07am 19.4 NE 10 13 1018.4 - 0.0 - Partly cloudy 10 - - - -
31/12:00am 19.3 NE 11 13 1018.4 - 0.0 - Partly cloudy 10 - - - -
 
Date/Time
EDT
Temp

°C
Wind Pressure Rain
since 9am
mm
Weather Cloud Vis
km
Sea
Height
m
Swell
Dir
 
Speed
knots
Gust
knots
hPa Trend Height
m
Period
s
Dir
30/11:46pm 19.3 NE 11 14 1018.6 - 0.0 - Partly cloudy 10 - - - -
30/11:30pm 19.1 NE 12 14 1018.4 - 0.0 - Partly cloudy 10 - - - -
30/11:00pm 19.0 NE 10 13 1018.7 - 0.0 - Partly cloudy 10 - - - -
30/10:30pm 18.9 NE 9 11 1018.7 - 0.0 - Partly cloudy 10 - - - -
30/10:00pm 18.9 NE 10 12 1018.7 - 0.0 - Partly cloudy 10 - - - -
30/09:30pm 18.8 ENE 9 11 1018.7 - 0.0 - Partly cloudy 10 - - - -
30/09:00pm 18.5 NE 8 10 1018.7 - 0.0 - - 10 - - - -
30/08:30pm 18.3 NE 7 9 1018.6 - 0.0 - - 10 - - - -
30/08:00pm 18.5 ENE 7 9 1018.2 - 0.0 - - 10 - - - -
30/07:30pm 18.0 ENE 6 8 1018.0 - 0.0 - - 10 - - - -
30/07:00pm 18.5 ENE 7 9 1017.5 - 0.0 - - 10 - - - -
30/06:30pm 18.7 ENE 7 9 1017.5 - 0.0 - - 10 - - - -
30/06:00pm 19.4 ENE 7 8 1017.3 - 0.0 - - 10 - - - -
30/05:30pm 19.9 ENE 6 8 1017.3 - 0.0 - - 10 - - - -
30/05:00pm 20.1 NE 6 8 1017.2 - 0.0 - - 10 - - - -
30/04:30pm 20.2 NE 6 8 1017.3 - 0.0 - Partly cloudy 10 - - - -
30/04:00pm 20.6 E 5 7 1017.3 - 0.0 - Partly cloudy 10 - - - -
30/03:30pm 20.3 E 5 7 1017.3 - 0.0 - Cloudy 10 - - - -
30/03:00pm 21.1 E 5 8 1017.5 - 0.0 - Mostly cloudy 10 - - - -
30/02:30pm 20.0 ENE 5 6 1017.6 - 0.0 - Partly cloudy 10 - - - -
30/02:00pm 20.1 ENE 5 6 1018.0 - 0.0 - Partly cloudy 10 - - - -
30/01:30pm 21.1 E 5 7 1018.1 - 0.0 - Partly cloudy 10 - - - -
30/01:00pm 20.8 ENE 7 8 1018.1 - 0.0 - Partly cloudy 10 - - - -
30/12:30pm 20.6 E 6 8 1018.3 - 0.0 - Partly cloudy 10 - - - -
30/12:00pm 20.8 E 6 8 1018.6 - 0.0 - Partly cloudy 10 - - - -
30/11:30am 21.1 ENE 6 7 1019.0 - 0.0 - Partly cloudy 10 - - - -
30/11:00am 20.6 E 5 7 1019.2 - 0.0 - Partly cloudy 10 - - - -
30/10:30am 20.7 ENE 5 7 1019.2 - 0.0 - Partly cloudy 10 - - - -
30/10:00am 20.3 E 6 8 1019.3 - 0.0 - Mostly clear 10 - - - -
30/09:30am 20.5 ENE 5 7 1019.4 - 0.0 - Mostly clear 10 - - - -
30/09:00am 20.4 ENE 5 7 1019.2 R 0.0 Haze Mostly clear 18 - - - -
30/08:30am 19.5 E 4 6 1019.1 - 0.0 - Mostly clear 10 - - - -
30/08:00am 19.8 E 5 7 1019.0 - 0.0 - Mostly clear 10 - - - -
30/07:30am 19.7 E 5 8 1018.7 - 0.0 - Mostly clear 10 - - - -
30/07:00am 19.2 E 5 8 1018.4 - 0.0 - Mostly clear 10 - - - -
30/06:30am 18.5 SE 5 6 1018.0 - 0.0 - Mostly clear 10 - - - -
30/06:00am 17.4 SE 6 8 1017.8 F 0.0 Haze Mostly clear 18 - - - -
30/05:30am 17.7 SE 6 7 1017.7 - 0.0 - Partly cloudy 10 - - - -
30/05:00am 16.8 SE 5 7 1017.4 - 0.0 - Partly cloudy 10 - - - -
30/04:30am 17.2 SE 5 7 1017.3 - 0.0 - Partly cloudy 10 - - - -
30/04:00am 17.8 SE 6 8 1017.3 - 0.0 - - 10 - - - -
30/03:30am 17.8 SE 6 9 1017.3 - 0.0 - Partly cloudy 10 - - - -
30/03:00am 17.8 SE 7 9 1017.4 - 0.0 - Mostly clear 10 - - - -
30/02:30am 17.7 ESE 7 10 1017.4 - 0.0 - - 10 - - - -
30/02:00am 17.9 SE 6 9 1017.4 - 0.0 - Partly cloudy 10 - - - -
30/01:30am 18.2 SE 5 7 1017.6 - 0.0 - Cloudy 10 - - - -
30/01:00am 18.3 ESE 7 12 1017.7 - 0.0 - Partly cloudy 10 - - - -
30/12:30am 18.4 SE 7 11 1017.9 - 0.0 - - 10 - - - -
30/12:00am 18.4 ESE 7 10 1018.1 - 0.0 - Partly cloudy 10 - - - -
 
Date/Time
EDT
Temp

°C
Wind Pressure Rain
since 9am
mm
Weather Cloud Vis
km
Sea
Height
m
Swell
Dir
 
Speed
knots
Gust
knots
hPa Trend Height
m
Period
s
Dir
29/11:30pm 18.7 SE 7 13 1018.1 - 0.0 - Partly cloudy 10 - - - -
29/11:00pm 18.9 ESE 9 13 1018.0 - 0.0 - Cloudy 10 - - - -
29/10:30pm 18.9 ESE 9 17 1018.0 - 0.0 - Partly cloudy 10 - - - -
29/10:00pm 18.9 SE 9 16 1018.0 - 0.0 - Partly cloudy 10 - - - -
29/09:30pm 18.8 ESE 8 18 1017.9 - 0.0 - Partly cloudy 10 - - - -
29/09:00pm 19.0 SE 8 15 1017.8 - 0.0 - Partly cloudy 10 - - - -
29/08:30pm 19.1 ESE 10 17 1017.5 - 0.0 - Partly cloudy 10 - - - -
29/08:00pm 19.1 SE 10 14 1017.2 - 0.0 - Partly cloudy 10 - - - -
29/07:30pm 19.2 ESE 12 19 1016.9 - 0.0 - Partly cloudy 10 - - - -
29/07:00pm 19.2 ESE 12 21 1016.6 - 0.0 - Partly cloudy 10 - - - -
29/06:30pm 19.5 ESE 11 17 1016.2 - 0.0 - Partly cloudy 10 - - - -
29/06:00pm 20.0 SE 11 16 1015.7 - 0.0 - Mostly clear 10 - - - -
29/05:30pm 21.0 ESE 10 17 1015.3 - 0.0 - Partly cloudy 10 - - - -
29/05:00pm 21.6 WSW 10 16 1015.1 - 0.0 - Partly cloudy 10 - - - -
29/04:30pm 22.1 WSW 10 12 1014.9 - 0.0 - Partly cloudy 10 - - - -
29/04:00pm 22.5 W 10 12 1014.8 - 0.0 - - 10 - - - -
29/03:30pm 22.6 W 10 12 1014.7 - 0.0 - - 10 - - - -
29/03:00pm 22.4 W 9 11 1014.9 R 0.0 Fine Mostly clear 25 - - - -
29/02:30pm 22.2 WSW 8 10 1015.0 - 0.0 - Mostly clear 10 - - - -
29/02:00pm 22.5 W 8 10 1015.2 - 0.0 - Mostly clear 10 - - - -
29/01:30pm 22.6 W 8 10 1015.2 - 0.0 - Mostly clear 10 - - - -
29/01:00pm 22.3 WSW 7 9 1015.2 - 0.0 - Mostly clear 10 - - - -
29/12:30pm 22.4 WSW 7 8 1015.2 - 0.0 - Mostly clear 10 - - - -
29/12:00pm 21.8 WSW 6 8 1015.4 - 0.0 - Mostly clear 10 - - - -
29/11:00am 22.1 WSW 7 9 1015.6 - 0.0 - Mostly clear 10 - - - -
29/10:30am 21.9 WSW 9 9 1015.6 - 0.0 - Mostly clear 10 - - - -
29/10:00am 21.7 WSW 9 12 1015.5 - 0.0 - Mostly clear 10 - - - -
29/09:30am 21.4 WSW 9 11 1015.2 - 0.0 - Mostly clear 10 - - - -
29/09:00am 21.1 SW 8 10 1014.8 R 0.8 Fine Mostly clear 22 - - - -
29/08:30am 20.8 SW 8 11 1014.7 - 0.8 - - 10 - - - -
29/08:00am 20.3 SW 7 10 1014.4 - 0.8 - - 10 - - - -
29/07:30am 19.8 SW 6 9 1014.1 - 0.8 - - 10 - - - -
29/07:00am 19.0 SSW 5 7 1013.8 - 0.8 - Mostly clear 10 - - - -
29/06:30am 18.2 SSW 6 8 1013.8 - 0.8 - Mostly clear 10 - - - -
29/06:00am 17.7 SSW 5 6 1013.6 R 0.8 Haze Mostly clear 15 - - - -
29/05:38am 17.1 SSW 5 6 1013.5 - 0.8 - Partly cloudy 10 - - - -
29/05:30am 17.2 SSW 5 6 1013.3 - 0.6 - Partly cloudy 10 - - - -
29/05:00am 16.7 SSW 5 6 1012.9 - 0.6 - Partly cloudy 10 - - - -
29/04:34am 14.2 S 3 4 1012.5 - 0.6 - Partly cloudy 7 - - - -
29/04:30am 14.0 S 3 4 1012.5 - 0.6 - Partly cloudy 8 - - - -
29/04:00am 13.8 SSW 1 4 1012.3 - 0.6 - - 4 - - - -
29/03:56am 14.5 SSW 2 4 1012.2 - 0.6 - - 6 - - - -
29/03:50am 14.7 SSW 2 4 1012.2 - 0.6 - - 7 - - - -
29/03:36am 14.4 SSW 1 4 1012.1 - 0.6 - - 6 - - - -
29/03:32am 15.1 SSW 3 5 1012.0 - 0.6 - - 8 - - - -
29/03:30am 15.6 SSW 3 5 1012.0 - 0.6 - - 8 - - - -
29/03:09am 14.9 CALM 0 0 1011.9 - 0.6 - - 1 - - - -
29/03:00am 14.1 CALM 0 0 1011.9 - 0.6 - - 0.5 - - - -

Other Formats:

Comma delimited format used in spreadsheet applications
http://www.bom.gov.au/fwo/IDN60701/IDN60701.94995.axf

JavaScript Object Notation format (JSON) in row-major order
http://www.bom.gov.au/fwo/IDN60701/IDN60701.94995.json